createdAt,value
2022-08-29T00:00:58.951Z,97632.44
2022-08-29T00:03:25.373Z,97628.63
2022-08-29T00:05:51.815Z,97634.25
2022-08-29T00:08:18.212Z,97631.16
2022-08-29T00:10:44.691Z,97624.41
2022-08-29T00:13:11.787Z,97632.31
2022-08-29T00:15:44.861Z,97633.00
2022-08-29T00:18:12.337Z,97631.50
2022-08-29T00:20:38.887Z,97631.38
2022-08-29T00:23:05.552Z,97631.59
2022-08-29T00:25:32.080Z,97628.78
2022-08-29T00:27:58.533Z,97628.78
2022-08-29T00:30:25.327Z,97635.84
2022-08-29T00:32:51.985Z,97638.50
2022-08-29T00:35:26.053Z,97639.31
2022-08-29T00:37:52.542Z,97647.22
2022-08-29T00:40:20.583Z,97640.31
2022-08-29T00:42:47.221Z,97644.13
2022-08-29T00:45:14.166Z,97635.41
2022-08-29T00:47:41.761Z,97636.06
2022-08-29T00:50:09.014Z,97640.81
2022-08-29T00:52:40.610Z,97640.66
2022-08-29T00:55:11.169Z,97635.75
2022-08-29T00:57:37.810Z,97642.81
2022-08-29T01:00:05.317Z,97635.75
2022-08-29T01:02:31.811Z,97640.03
2022-08-29T01:05:00.278Z,97630.81
2022-08-29T01:07:26.965Z,97632.13
2022-08-29T01:09:53.915Z,97635.75
2022-08-29T01:12:20.688Z,97634.75
2022-08-29T01:14:58.696Z,97632.78
2022-08-29T01:17:26.283Z,97636.56
2022-08-29T01:19:57.604Z,97635.91
2022-08-29T01:22:24.033Z,97635.91
2022-08-29T01:24:51.359Z,97624.88
2022-08-29T01:27:18.946Z,97631.16
2022-08-29T01:29:45.458Z,97631.16
2022-08-29T01:32:12.985Z,97643.00
2022-08-29T01:34:39.672Z,97637.06
2022-08-29T01:37:06.922Z,97635.78
2022-08-29T01:39:34.637Z,97631.47
2022-08-29T01:42:02.173Z,97631.13
2022-08-29T01:44:28.638Z,97632.47
2022-08-29T01:47:01.662Z,97637.06
2022-08-29T01:49:29.243Z,97638.06
2022-08-29T01:51:55.678Z,97638.06
2022-08-29T01:54:22.232Z,97645.47
2022-08-29T01:56:52.058Z,97643.66
2022-08-29T01:59:19.574Z,97645.00
2022-08-29T02:02:00.414Z,97644.63
2022-08-29T02:04:27.413Z,97646.94
2022-08-29T02:06:55.657Z,97646.63
2022-08-29T02:09:22.703Z,97645.13
2022-08-29T02:11:52.517Z,97645.31
2022-08-29T02:14:19.915Z,97645.31
2022-08-29T02:16:47.319Z,97642.34
2022-08-29T02:19:13.880Z,97641.69
2022-08-29T02:21:41.090Z,97638.06
2022-08-29T02:24:24.361Z,97641.53
2022-08-29T02:26:52.461Z,97645.72
2022-08-29T02:29:18.861Z,97640.81
2022-08-29T02:31:45.391Z,97638.34
2022-08-29T02:34:12.953Z,97638.66
2022-08-29T02:36:41.380Z,97636.34
2022-08-29T02:39:08.138Z,97644.59
2022-08-29T02:41:34.648Z,97646.56
2022-08-29T02:44:01.124Z,97641.00
2022-08-29T02:46:27.814Z,97643.94
2022-08-29T02:49:00.481Z,97648.69
2022-08-29T02:51:29.036Z,97655.41
2022-08-29T02:53:55.651Z,97650.47
2022-08-29T02:56:22.166Z,97648.50
2022-08-29T02:58:50.494Z,97644.84
2022-08-29T03:01:17.863Z,97646.47
2022-08-29T03:03:44.346Z,97655.00
2022-08-29T03:06:10.775Z,97650.56
2022-08-29T03:08:37.941Z,97650.72
2022-08-29T03:11:05.973Z,97649.75
2022-08-29T03:13:33.661Z,97651.72
2022-08-29T03:16:02.303Z,97652.03
2022-08-29T03:18:29.180Z,97643.47
2022-08-29T03:20:55.961Z,97647.44
2022-08-29T03:23:22.414Z,97646.13
2022-08-29T03:25:48.886Z,97640.88
2022-08-29T03:28:15.408Z,97645.16
2022-08-29T03:30:42.276Z,97646.19
2022-08-29T03:33:11.591Z,97641.91
2022-08-29T03:35:38.619Z,97645.31
2022-08-29T03:38:05.025Z,97646.31
2022-08-29T03:40:31.568Z,97644.16
2022-08-29T03:42:58.134Z,97645.97
2022-08-29T03:45:25.562Z,97644.97
2022-08-29T03:47:53.592Z,97637.09
2022-08-29T03:50:20.945Z,97645.31
2022-08-29T03:52:47.828Z,97637.59
2022-08-29T03:55:15.226Z,97644.66
2022-08-29T03:57:41.740Z,97645.69
2022-08-29T04:00:12.144Z,97646.50
2022-08-29T04:02:39.237Z,97634.81
2022-08-29T04:05:08.825Z,97634.97
2022-08-29T04:07:50.277Z,97639.91
2022-08-29T04:10:21.449Z,97636.44
2022-08-29T04:12:52.470Z,97626.09
2022-08-29T04:15:21.297Z,97629.50
2022-08-29T04:17:52.935Z,97642.47
2022-08-29T04:20:24.550Z,97631.78
2022-08-29T04:22:51.802Z,97629.00
2022-08-29T04:25:18.213Z,97636.56
2022-08-29T04:27:44.954Z,97632.94
2022-08-29T04:30:13.178Z,97641.00
2022-08-29T04:32:39.689Z,97638.25
2022-08-29T04:35:06.520Z,97643.00
2022-08-29T04:37:32.945Z,97641.00
2022-08-29T04:39:59.390Z,97641.16
2022-08-29T04:42:26.049Z,97639.34
2022-08-29T04:44:52.484Z,97640.16
2022-08-29T04:47:21.667Z,97645.09
2022-08-29T04:49:49.778Z,97656.97
2022-08-29T04:52:21.112Z,97664.22
2022-08-29T04:54:47.571Z,97662.59
2022-08-29T04:57:14.598Z,97656.72
2022-08-29T04:59:42.720Z,97655.72
2022-08-29T05:02:09.157Z,97649.31
2022-08-29T05:04:35.622Z,97647.00
2022-08-29T05:07:02.098Z,97655.06
2022-08-29T05:09:28.573Z,97658.03
2022-08-29T05:11:55.125Z,97648.50
2022-08-29T05:14:21.684Z,97652.44
2022-08-29T05:16:48.399Z,97650.97
2022-08-29T05:19:16.088Z,97653.31
2022-08-29T05:21:42.650Z,97660.03
2022-08-29T05:24:10.021Z,97654.94
2022-08-29T05:26:37.950Z,97656.88
2022-08-29T05:29:08.723Z,97657.56
2022-08-29T05:31:36.819Z,97651.16
2022-08-29T05:34:31.848Z,97649.53
2022-08-29T05:36:51.581Z,97645.44
2022-08-29T05:39:18.026Z,97651.88
2022-08-29T05:41:44.455Z,97651.06
2022-08-29T05:44:10.880Z,97651.22
2022-08-29T05:46:37.392Z,97654.84
2022-08-29T05:49:05.541Z,97665.38
2022-08-29T05:51:37.301Z,97674.44
2022-08-29T05:54:05.881Z,97668.34
2022-08-29T05:56:32.341Z,97672.97
2022-08-29T05:58:58.847Z,97672.94
2022-08-29T06:01:26.636Z,97667.97
2022-08-29T06:03:53.909Z,97665.66
2022-08-29T06:06:22.194Z,97665.78
2022-08-29T06:08:49.813Z,97664.72
2022-08-29T06:11:17.170Z,97659.47
2022-08-29T06:13:43.638Z,97672.22
2022-08-29T06:16:13.998Z,97673.41
2022-08-29T06:18:40.841Z,97672.47
2022-08-29T06:21:07.929Z,97676.56
2022-08-29T06:23:34.807Z,97677.19
2022-08-29T06:26:01.385Z,97674.41
2022-08-29T06:28:28.354Z,97675.78
2022-08-29T06:30:54.812Z,97678.06
2022-08-29T06:33:21.356Z,97676.94
2022-08-29T06:35:47.811Z,97682.59
2022-08-29T06:38:14.398Z,97686.63
2022-08-29T06:40:40.920Z,97676.13
2022-08-29T06:43:07.498Z,97682.06
2022-08-29T06:45:33.910Z,97682.81
2022-08-29T06:48:00.345Z,97683.53
2022-08-29T06:50:28.386Z,97685.88
2022-08-29T06:52:55.733Z,97689.88
2022-08-29T06:55:24.051Z,97690.81
2022-08-29T06:57:50.823Z,97677.75
2022-08-29T07:00:22.602Z,97687.53
2022-08-29T07:02:51.784Z,97685.78
2022-08-29T07:05:19.555Z,97686.66
2022-08-29T07:07:45.956Z,97684.34
2022-08-29T07:10:17.487Z,97690.63
2022-08-29T07:12:46.489Z,97691.44
2022-08-29T07:15:12.927Z,97686.50
2022-08-29T07:17:39.917Z,97687.25
2022-08-29T07:20:07.688Z,97693.91
2022-08-29T07:22:34.696Z,97684.72
2022-08-29T07:25:01.272Z,97690.50
2022-08-29T07:27:27.786Z,97687.59
2022-08-29T07:29:54.242Z,97688.22
2022-08-29T07:32:25.215Z,97685.38
2022-08-29T07:34:55.983Z,97693.31
2022-08-29T07:37:22.782Z,97688.22
2022-08-29T07:39:49.243Z,97692.50
2022-08-29T07:42:15.811Z,97704.59
2022-08-29T07:44:42.249Z,97696.00
2022-08-29T07:47:08.679Z,97698.25
2022-08-29T07:49:41.125Z,97692.50
2022-08-29T07:52:08.142Z,97689.03
2022-08-29T07:54:34.633Z,97695.38
2022-08-29T07:57:01.099Z,97699.47
2022-08-29T07:59:27.662Z,97699.88
2022-08-29T08:01:54.085Z,97700.28
2022-08-29T08:04:20.585Z,97712.13
2022-08-29T08:06:50.699Z,97706.50
2022-08-29T08:09:17.156Z,97716.06
2022-08-29T08:11:43.665Z,97717.88
2022-08-29T08:14:10.310Z,97714.81
2022-08-29T08:16:37.075Z,97719.56
2022-08-29T08:19:03.823Z,97721.59
2022-08-29T08:21:30.291Z,97709.00
2022-08-29T08:23:56.836Z,97713.59
2022-08-29T08:26:23.273Z,97712.63
2022-08-29T08:28:49.974Z,97715.41
2022-08-29T08:31:16.894Z,97715.81
2022-08-29T08:33:44.400Z,97711.56
2022-08-29T08:36:15.191Z,97712.88
2022-08-29T08:38:41.691Z,97713.53
2022-08-29T08:41:22.850Z,97708.09
2022-08-29T08:43:55.086Z,97697.59
2022-08-29T08:46:27.935Z,97711.94
2022-08-29T08:48:54.566Z,97717.94
2022-08-29T08:51:22.906Z,97711.03
2022-08-29T08:53:50.389Z,97715.69
2022-08-29T08:56:19.564Z,97714.53
2022-08-29T08:58:51.354Z,97704.19
2022-08-29T09:01:20.875Z,97704.13
2022-08-29T09:04:00.787Z,97700.06
2022-08-29T09:06:46.026Z,97701.69
2022-08-29T09:09:31.461Z,97705.16
2022-08-29T09:12:16.687Z,97711.16
2022-08-29T09:14:43.161Z,97707.28
2022-08-29T09:17:12.401Z,97705.75
2022-08-29T09:19:38.859Z,97713.72
2022-08-29T09:22:11.222Z,97709.59
2022-08-29T09:24:49.095Z,97702.09
2022-08-29T09:27:26.674Z,97705.03
2022-08-29T09:29:55.334Z,97700.84
2022-08-29T09:32:22.676Z,97695.81
2022-08-29T09:35:08.498Z,97682.88
2022-08-29T09:37:35.587Z,97690.28
2022-08-29T09:40:11.949Z,97686.44
2022-08-29T09:42:40.264Z,97691.13
2022-08-29T09:45:25.062Z,97698.75
2022-08-29T09:48:35.376Z,97689.91
2022-08-29T09:51:21.013Z,97700.00
2022-08-29T09:53:47.454Z,97696.72
2022-08-29T09:56:22.020Z,97707.09
2022-08-29T09:58:57.054Z,97698.06
2022-08-29T10:01:28.114Z,97702.84
2022-08-29T10:03:59.386Z,97690.88
2022-08-29T10:06:31.290Z,97687.66
2022-08-29T10:08:59.752Z,97695.66
2022-08-29T10:11:35.532Z,97689.41
2022-08-29T10:14:03.941Z,97686.41
2022-08-29T10:16:39.717Z,97679.06
2022-08-29T10:19:13.867Z,97680.72
2022-08-29T10:21:55.850Z,97684.44
2022-08-29T10:24:55.130Z,97682.66
2022-08-29T10:27:40.870Z,97678.41
2022-08-29T10:30:11.666Z,97682.84
2022-08-29T10:32:41.127Z,97671.91
2022-08-29T10:35:25.620Z,97676.56
2022-08-29T10:37:58.066Z,97677.31
2022-08-29T10:40:43.191Z,97678.38
2022-08-29T10:43:16.894Z,97674.84
2022-08-29T10:45:43.507Z,97670.34
2022-08-29T10:48:14.536Z,97669.97
2022-08-29T10:51:00.021Z,97665.34
2022-08-29T10:53:31.724Z,97667.09
2022-08-29T10:56:06.440Z,97673.13
2022-08-29T10:58:37.422Z,97672.81
2022-08-29T11:01:08.458Z,97660.66
2022-08-29T11:03:38.658Z,97665.00
2022-08-29T11:06:22.625Z,97658.19
2022-08-29T11:09:03.081Z,97651.81
2022-08-29T11:11:30.243Z,97657.50
2022-08-29T11:14:01.149Z,97644.31
2022-08-29T11:16:38.481Z,97641.38
2022-08-29T11:19:09.886Z,97639.53
2022-08-29T11:21:51.434Z,97637.00
2022-08-29T11:24:22.090Z,97643.06
2022-08-29T11:26:53.715Z,97635.09
2022-08-29T11:29:29.262Z,97633.91
2022-08-29T11:32:04.123Z,97616.53
2022-08-29T11:34:49.469Z,97621.59
2022-08-29T11:37:16.245Z,97611.00
2022-08-29T11:39:50.421Z,97605.34
2022-08-29T11:42:49.955Z,97608.13
2022-08-29T11:45:04.670Z,97608.69
2022-08-29T11:47:43.418Z,97612.66
2022-08-29T11:50:16.005Z,97604.25
2022-08-29T11:52:51.444Z,97607.25
2022-08-29T11:55:35.223Z,97611.91
2022-08-29T11:58:05.657Z,97603.94
2022-08-29T12:00:37.982Z,97609.47
2022-08-29T12:03:15.074Z,97602.63
2022-08-29T12:05:46.298Z,97609.53
2022-08-29T12:08:36.496Z,97607.66
2022-08-29T12:11:02.323Z,97599.19
2022-08-29T12:13:44.107Z,97604.94
2022-08-29T12:16:10.842Z,97593.06
2022-08-29T12:18:57.577Z,97588.56
2022-08-29T12:21:44.338Z,97587.88
2022-08-29T12:24:57.204Z,97595.81
2022-08-29T12:27:44.378Z,97589.34
2022-08-29T12:30:10.875Z,97592.38
2022-08-29T12:33:00.593Z,97586.69
2022-08-29T12:35:46.734Z,97582.25
2022-08-29T12:38:41.978Z,97588.56
2022-08-29T12:41:12.061Z,97584.75
2022-08-29T12:43:42.857Z,97569.78
2022-08-29T12:46:16.795Z,97572.25
2022-08-29T12:48:53.432Z,97573.25
2022-08-29T12:51:41.243Z,97567.56
2022-08-29T12:54:08.474Z,97564.03
2022-08-29T12:56:42.833Z,97571.22
2022-08-29T12:59:15.366Z,97567.81
2022-08-29T13:01:46.247Z,97562.88
2022-08-29T13:04:14.748Z,97557.28
2022-08-29T13:06:53.467Z,97560.69
2022-08-29T13:09:25.953Z,97558.53
2022-08-29T13:12:06.272Z,97556.88
2022-08-29T13:14:34.936Z,97555.00
2022-08-29T13:17:01.435Z,97559.03
2022-08-29T13:19:27.926Z,97560.16
2022-08-29T13:22:02.364Z,97562.28
2022-08-29T13:24:28.838Z,97556.63
2022-08-29T13:27:04.264Z,97554.28
2022-08-29T13:29:37.332Z,97545.19
2022-08-29T13:32:09.983Z,97558.09
2022-08-29T13:34:36.395Z,97551.19
2022-08-29T13:37:10.502Z,97557.78
2022-08-29T13:39:46.562Z,97549.47
2022-08-29T13:42:17.681Z,97554.56
2022-08-29T13:44:47.449Z,97551.34
2022-08-29T13:47:16.876Z,97545.94
2022-08-29T13:49:43.343Z,97539.47
2022-08-29T13:52:12.730Z,97547.38
2022-08-29T13:54:40.636Z,97542.38
2022-08-29T13:57:08.071Z,97539.72
2022-08-29T13:59:36.084Z,97540.63
2022-08-29T14:02:10.983Z,97539.53
2022-08-29T14:04:40.406Z,97535.50
2022-08-29T14:07:12.010Z,97539.00
2022-08-29T14:09:39.910Z,97536.81
2022-08-29T14:12:06.685Z,97527.09
2022-08-29T14:14:33.105Z,97525.75
2022-08-29T14:16:59.893Z,97524.41
2022-08-29T14:19:27.173Z,97524.44
2022-08-29T14:21:54.832Z,97527.13
2022-08-29T14:24:21.901Z,97522.78
2022-08-29T14:27:01.484Z,97517.28
2022-08-29T14:29:30.730Z,97519.50
2022-08-29T14:31:57.742Z,97515.69
2022-08-29T14:34:24.286Z,97514.88
2022-08-29T14:36:50.759Z,97518.19
2022-08-29T14:39:17.233Z,97510.91
2022-08-29T14:41:43.677Z,97518.47
2022-08-29T14:44:10.559Z,97522.78
2022-08-29T14:46:45.901Z,97521.72
2022-08-29T14:49:12.424Z,97519.81
2022-08-29T14:51:38.904Z,97512.16
2022-08-29T14:54:05.327Z,97509.19
2022-08-29T14:56:47.598Z,97519.44
2022-08-29T14:59:14.903Z,97517.22
2022-08-29T15:01:41.982Z,97519.66
2022-08-29T15:04:08.503Z,97512.59
2022-08-29T15:06:34.966Z,97510.44
2022-08-29T15:09:01.392Z,97509.72
2022-08-29T15:11:27.893Z,97507.84
2022-08-29T15:13:54.393Z,97511.91
2022-08-29T15:16:20.882Z,97510.50
2022-08-29T15:21:33.826Z,97500.31
2022-08-29T15:24:00.306Z,97494.63
2022-08-29T15:26:26.735Z,97494.19
2022-08-29T15:28:54.845Z,97497.81
2022-08-29T15:31:22.024Z,97489.03
2022-08-29T15:33:48.615Z,97494.69
2022-08-29T15:36:15.026Z,97494.09
2022-08-29T15:38:41.451Z,97491.16
2022-08-29T15:41:07.948Z,97492.97
2022-08-29T15:43:34.462Z,97496.41
2022-08-29T15:46:01.054Z,97482.09
2022-08-29T15:48:27.609Z,97482.56
2022-08-29T15:50:54.041Z,97476.81
2022-08-29T15:53:20.556Z,97476.22
2022-08-29T15:55:47.009Z,97477.31
2022-08-29T15:58:13.444Z,97484.91
2022-08-29T16:00:39.970Z,97482.78
2022-08-29T16:03:07.547Z,97476.06
2022-08-29T16:05:34.742Z,97478.94
2022-08-29T16:08:01.305Z,97468.50
2022-08-29T16:10:27.839Z,97471.00
2022-08-29T16:12:54.330Z,97471.16
2022-08-29T16:15:20.909Z,97460.03
2022-08-29T16:17:47.372Z,97465.13
2022-08-29T16:20:13.932Z,97466.66
2022-08-29T16:22:41.111Z,97473.66
2022-08-29T16:25:08.233Z,97469.81
2022-08-29T16:27:34.781Z,97472.22
2022-08-29T16:30:01.433Z,97461.16
2022-08-29T16:32:27.888Z,97466.34
2022-08-29T16:34:54.335Z,97465.28
2022-08-29T16:37:21.194Z,97475.16
2022-08-29T16:39:47.606Z,97477.84
2022-08-29T16:42:14.228Z,97477.66
2022-08-29T16:44:40.801Z,97478.97
2022-08-29T16:47:07.701Z,97486.72
2022-08-29T16:49:34.243Z,97478.84
2022-08-29T16:52:00.746Z,97488.19
2022-08-29T16:54:27.583Z,97488.69
2022-08-29T16:56:54.032Z,97483.00
2022-08-29T16:59:20.508Z,97484.25
2022-08-29T17:01:48.357Z,97480.59
2022-08-29T17:04:16.352Z,97478.97
2022-08-29T17:06:43.277Z,97486.94
2022-08-29T17:09:09.738Z,97485.56
2022-08-29T17:11:36.872Z,97488.41
2022-08-29T17:14:03.432Z,97486.88
2022-08-29T17:16:30.004Z,97498.06
2022-08-29T17:18:56.515Z,97494.13
2022-08-29T17:21:23.013Z,97496.81
2022-08-29T17:23:49.907Z,97489.16
2022-08-29T17:26:16.777Z,97486.31
2022-08-29T17:28:43.360Z,97481.81
2022-08-29T17:31:09.911Z,97486.75
2022-08-29T17:33:36.562Z,97478.75
2022-08-29T17:36:04.505Z,97482.66
2022-08-29T17:38:31.161Z,97487.44
2022-08-29T17:41:02.331Z,97488.13
2022-08-29T17:43:32.803Z,97490.03
2022-08-29T17:45:59.369Z,97492.00
2022-08-29T17:48:25.899Z,97493.44
2022-08-29T17:50:52.354Z,97496.94
2022-08-29T17:53:18.853Z,97500.47
2022-08-29T17:55:45.948Z,97500.56
2022-08-29T17:58:12.781Z,97500.94
2022-08-29T18:00:39.633Z,97507.59
2022-08-29T18:03:06.059Z,97502.31
2022-08-29T18:05:32.539Z,97502.16
2022-08-29T18:07:59.089Z,97504.09
2022-08-29T18:10:25.588Z,97500.22
2022-08-29T18:12:52.050Z,97508.75
2022-08-29T18:15:18.526Z,97505.78
2022-08-29T18:17:45.401Z,97503.00
2022-08-29T18:20:12.905Z,97502.59
2022-08-29T18:22:40.092Z,97513.19
2022-08-29T18:25:07.317Z,97518.91
2022-08-29T18:27:33.868Z,97522.31
2022-08-29T18:30:02.068Z,97522.59
2022-08-29T18:32:28.725Z,97519.19
2022-08-29T18:35:03.637Z,97524.69
2022-08-29T18:37:30.115Z,97522.06
2022-08-29T18:39:56.593Z,97525.59
2022-08-29T18:42:39.383Z,97532.19
2022-08-29T18:45:07.325Z,97520.31
2022-08-29T18:47:33.821Z,97527.91
2022-08-29T18:50:18.963Z,97528.63
2022-08-29T18:52:45.976Z,97523.97
2022-08-29T18:55:15.230Z,97530.13
2022-08-29T18:57:44.965Z,97522.47
2022-08-29T19:00:11.755Z,97526.84
2022-08-29T19:02:38.277Z,97531.38
2022-08-29T19:05:05.092Z,97530.81
2022-08-29T19:07:31.557Z,97534.56
2022-08-29T19:09:57.997Z,97537.63
2022-08-29T19:12:24.438Z,97532.13
2022-08-29T19:14:50.926Z,97539.75
2022-08-29T19:17:17.585Z,97537.88
2022-08-29T19:20:02.743Z,97550.41
2022-08-29T19:22:36.508Z,97544.69
2022-08-29T19:25:05.852Z,97546.97
2022-08-29T19:27:43.230Z,97545.72
2022-08-29T19:30:11.075Z,97556.59
2022-08-29T19:32:37.535Z,97553.34
2022-08-29T19:35:04.169Z,97551.75
2022-08-29T19:37:30.606Z,97549.31
2022-08-29T19:39:57.154Z,97551.13
2022-08-29T19:42:24.010Z,97551.13
2022-08-29T19:44:50.419Z,97545.22
2022-08-29T19:47:16.868Z,97543.56
2022-08-29T19:49:45.419Z,97545.03
2022-08-29T19:52:12.084Z,97547.06
2022-08-29T19:54:38.531Z,97549.75
2022-08-29T19:57:05.114Z,97544.81
2022-08-29T19:59:31.955Z,97555.44
2022-08-29T20:01:58.761Z,97552.59
2022-08-29T20:04:25.281Z,97554.63
2022-08-29T20:06:53.322Z,97550.97
2022-08-29T20:09:21.002Z,97556.22
2022-08-29T20:11:47.739Z,97551.72
2022-08-29T20:14:14.428Z,97551.31
2022-08-29T20:16:41.851Z,97553.34
2022-08-29T20:19:08.415Z,97550.88
2022-08-29T20:21:34.923Z,97551.66
2022-08-29T20:24:02.249Z,97556.78
2022-08-29T20:26:31.496Z,97544.72
2022-08-29T20:29:00.149Z,97548.41
2022-08-29T20:31:27.022Z,97536.97
2022-08-29T20:33:53.535Z,97553.31
2022-08-29T20:36:39.266Z,97542.06
2022-08-29T20:39:06.433Z,97552.88
2022-08-29T20:41:32.934Z,97553.72
2022-08-29T20:44:06.730Z,97556.72
2022-08-29T20:46:34.050Z,97555.09
2022-08-29T20:49:01.473Z,97556.50
2022-08-29T20:51:27.982Z,97556.69
2022-08-29T20:53:55.217Z,97553.03
2022-08-29T20:56:21.945Z,97563.03
2022-08-29T20:58:48.431Z,97560.75
2022-08-29T21:01:14.912Z,97555.63
2022-08-29T21:04:00.212Z,97565.63
2022-08-29T21:06:26.921Z,97570.50
2022-08-29T21:08:53.403Z,97568.44
2022-08-29T21:11:20.975Z,97569.91
2022-08-29T21:13:51.228Z,97568.09
2022-08-29T21:16:19.605Z,97569.31
2022-08-29T21:18:46.111Z,97568.56
2022-08-29T21:21:13.417Z,97568.97
2022-08-29T21:23:40.437Z,97567.59
2022-08-29T21:26:06.946Z,97563.75
2022-08-29T21:28:33.462Z,97563.59
2022-08-29T21:31:26.415Z,97567.69
2022-08-29T21:33:52.898Z,97564.38
2022-08-29T21:36:20.787Z,97568.88
2022-08-29T21:38:47.702Z,97569.44
2022-08-29T21:41:14.534Z,97573.28
2022-08-29T21:43:41.292Z,97573.25
2022-08-29T21:46:17.824Z,97564.25
2022-08-29T21:48:44.523Z,97561.81
2022-08-29T21:51:11.065Z,97558.91
2022-08-29T21:53:37.807Z,97562.97
2022-08-29T21:56:08.176Z,97564.00
2022-08-29T21:58:34.803Z,97568.28
2022-08-29T22:01:01.223Z,97563.19
2022-08-29T22:03:27.718Z,97561.34
2022-08-29T22:05:54.439Z,97560.53
2022-08-29T22:08:21.234Z,97570.66
2022-08-29T22:10:48.193Z,97566.13
2022-08-29T22:13:15.062Z,97564.84
2022-08-29T22:16:00.284Z,97560.38
2022-08-29T22:18:26.823Z,97561.63
2022-08-29T22:20:55.454Z,97562.47
2022-08-29T22:23:22.540Z,97560.44
2022-08-29T22:25:49.130Z,97569.44
2022-08-29T22:28:15.565Z,97571.09
2022-08-29T22:30:42.000Z,97570.94
2022-08-29T22:33:08.603Z,97577.06
2022-08-29T22:35:39.445Z,97572.19
2022-08-29T22:38:06.152Z,97578.56
2022-08-29T22:40:32.722Z,97579.56
2022-08-29T22:42:59.242Z,97579.72
2022-08-29T22:45:25.899Z,97573.38
2022-08-29T22:47:52.434Z,97577.66
2022-08-29T22:50:20.697Z,97577.59
2022-08-29T22:52:47.165Z,97571.03
2022-08-29T22:55:15.182Z,97573.44
2022-08-29T22:57:45.373Z,97581.16
2022-08-29T23:00:13.470Z,97581.16
2022-08-29T23:02:40.103Z,97580.16
2022-08-29T23:05:09.763Z,97584.84
2022-08-29T23:07:36.601Z,97571.78
2022-08-29T23:10:03.497Z,97579.31
2022-08-29T23:12:30.115Z,97573.94
2022-08-29T23:14:56.651Z,97572.44
2022-08-29T23:17:23.335Z,97577.72
2022-08-29T23:19:50.094Z,97586.03
2022-08-29T23:22:17.607Z,97587.44
2022-08-29T23:24:58.091Z,97594.13
2022-08-29T23:27:25.061Z,97581.69
2022-08-29T23:29:51.618Z,97579.88
2022-08-29T23:32:18.206Z,97578.66
2022-08-29T23:34:44.669Z,97580.09
2022-08-29T23:37:11.085Z,97575.63
2022-08-29T23:39:37.518Z,97572.16
2022-08-29T23:42:04.178Z,97575.19
2022-08-29T23:44:30.620Z,97566.84
2022-08-29T23:46:57.098Z,97565.91
2022-08-29T23:49:23.797Z,97569.97
2022-08-29T23:51:50.306Z,97578.16
2022-08-29T23:54:16.837Z,97573.78
2022-08-29T23:56:43.275Z,97584.28
2022-08-29T23:59:29.788Z,97580.63
